sensor_id;sensor_type;location;lat;lon;timestamp;P1;durP1;ratioP1;P2;durP2;ratioP2
53642;SDS011;39546;45.534;12.048;2022-11-21T00:05:48;8.88;;;5.87;;
53642;SDS011;39546;45.534;12.048;2022-11-21T00:11:51;9.63;;;6.62;;
53642;SDS011;39546;45.534;12.048;2022-11-21T00:17:52;7.95;;;5.87;;
53642;SDS011;39546;45.534;12.048;2022-11-21T00:23:54;9.05;;;6.03;;
53642;SDS011;39546;45.534;12.048;2022-11-21T00:29:56;6.60;;;4.85;;
53642;SDS011;39546;45.534;12.048;2022-11-21T00:36:04;9.63;;;6.40;;
53642;SDS011;39546;45.534;12.048;2022-11-21T00:42:09;9.90;;;6.87;;
53642;SDS011;39546;45.534;12.048;2022-11-21T00:48:11;11.55;;;6.80;;
53642;SDS011;39546;45.534;12.048;2022-11-21T00:54:12;9.00;;;5.18;;
53642;SDS011;39546;45.534;12.048;2022-11-21T01:00:14;8.85;;;5.90;;
53642;SDS011;39546;45.534;12.048;2022-11-21T01:06:17;9.63;;;6.80;;
53642;SDS011;39546;45.534;12.048;2022-11-21T01:12:19;8.73;;;6.28;;
53642;SDS011;39546;45.534;12.048;2022-11-21T01:18:21;8.05;;;5.62;;
53642;SDS011;39546;45.534;12.048;2022-11-21T01:24:23;8.75;;;5.60;;
53642;SDS011;39546;45.534;12.048;2022-11-21T01:30:24;8.60;;;4.95;;
53642;SDS011;39546;45.534;12.048;2022-11-21T01:36:27;6.97;;;4.60;;
53642;SDS011;39546;45.534;12.048;2022-11-21T01:49:23;6.57;;;4.43;;
53642;SDS011;39546;45.534;12.048;2022-11-21T01:55:30;6.20;;;3.83;;
53642;SDS011;39546;45.534;12.048;2022-11-21T02:01:34;6.97;;;4.35;;
53642;SDS011;39546;45.534;12.048;2022-11-21T02:07:39;7.12;;;4.35;;
53642;SDS011;39546;45.534;12.048;2022-11-21T02:13:43;8.95;;;4.45;;
53642;SDS011;39546;45.534;12.048;2022-11-21T02:19:52;6.45;;;4.53;;
53642;SDS011;39546;45.534;12.048;2022-11-21T02:25:56;5.47;;;3.35;;
53642;SDS011;39546;45.534;12.048;2022-11-21T02:31:59;5.25;;;3.72;;
53642;SDS011;39546;45.534;12.048;2022-11-21T02:44:19;8.00;;;4.65;;
53642;SDS011;39546;45.534;12.048;2022-11-21T02:50:35;5.47;;;3.45;;
53642;SDS011;39546;45.534;12.048;2022-11-21T02:56:42;4.62;;;3.12;;
53642;SDS011;39546;45.534;12.048;2022-11-21T03:02:44;5.62;;;4.00;;
53642;SDS011;39546;45.534;12.048;2022-11-21T03:08:46;5.47;;;3.70;;
53642;SDS011;39546;45.534;12.048;2022-11-21T03:14:48;5.32;;;3.10;;
53642;SDS011;39546;45.534;12.048;2022-11-21T03:20:50;6.95;;;4.30;;
53642;SDS011;39546;45.534;12.048;2022-11-21T03:26:52;6.47;;;3.42;;
53642;SDS011;39546;45.534;12.048;2022-11-21T03:32:55;5.65;;;3.58;;
53642;SDS011;39546;45.534;12.048;2022-11-21T03:38:57;6.82;;;4.80;;
53642;SDS011;39546;45.534;12.048;2022-11-21T03:44:59;7.72;;;5.37;;
53642;SDS011;39546;45.534;12.048;2022-11-21T03:51:01;9.93;;;5.10;;
53642;SDS011;39546;45.534;12.048;2022-11-21T03:57:03;6.00;;;4.10;;
53642;SDS011;39546;45.534;12.048;2022-11-21T04:03:05;6.78;;;4.87;;
53642;SDS011;39546;45.534;12.048;2022-11-21T04:09:07;6.32;;;3.97;;
53642;SDS011;39546;45.534;12.048;2022-11-21T04:15:09;9.93;;;6.00;;
53642;SDS011;39546;45.534;12.048;2022-11-21T04:21:12;6.47;;;5.18;;
53642;SDS011;39546;45.534;12.048;2022-11-21T04:27:14;12.02;;;4.37;;
53642;SDS011;39546;45.534;12.048;2022-11-21T04:33:16;8.38;;;4.30;;
53642;SDS011;39546;45.534;12.048;2022-11-21T04:39:18;6.20;;;4.37;;
53642;SDS011;39546;45.534;12.048;2022-11-21T04:45:20;6.72;;;4.12;;
53642;SDS011;39546;45.534;12.048;2022-11-21T04:51:22;7.18;;;4.62;;
53642;SDS011;39546;45.534;12.048;2022-11-21T04:57:26;8.20;;;5.25;;
53642;SDS011;39546;45.534;12.048;2022-11-21T05:03:29;5.37;;;3.75;;
53642;SDS011;39546;45.534;12.048;2022-11-21T05:09:31;5.12;;;3.92;;
53642;SDS011;39546;45.534;12.048;2022-11-21T05:15:33;6.25;;;4.55;;
53642;SDS011;39546;45.534;12.048;2022-11-21T05:21:35;4.30;;;3.22;;
53642;SDS011;39546;45.534;12.048;2022-11-21T05:27:37;4.93;;;3.37;;
53642;SDS011;39546;45.534;12.048;2022-11-21T05:33:39;6.80;;;5.15;;
53642;SDS011;39546;45.534;12.048;2022-11-21T05:39:41;7.82;;;4.93;;
53642;SDS011;39546;45.534;12.048;2022-11-21T05:45:43;7.25;;;4.45;;
53642;SDS011;39546;45.534;12.048;2022-11-21T05:51:45;8.00;;;5.32;;
53642;SDS011;39546;45.534;12.048;2022-11-21T05:57:47;7.10;;;5.28;;
53642;SDS011;39546;45.534;12.048;2022-11-21T06:03:49;5.85;;;4.35;;
53642;SDS011;39546;45.534;12.048;2022-11-21T06:09:51;9.88;;;6.07;;
53642;SDS011;39546;45.534;12.048;2022-11-21T06:15:56;9.70;;;6.12;;
53642;SDS011;39546;45.534;12.048;2022-11-21T06:22:00;11.50;;;7.68;;
53642;SDS011;39546;45.534;12.048;2022-11-21T06:28:02;15.50;;;10.15;;
53642;SDS011;39546;45.534;12.048;2022-11-21T06:34:05;12.37;;;9.50;;
53642;SDS011;39546;45.534;12.048;2022-11-21T06:40:07;11.63;;;8.85;;
53642;SDS011;39546;45.534;12.048;2022-11-21T06:46:09;12.00;;;8.85;;
53642;SDS011;39546;45.534;12.048;2022-11-21T06:58:36;11.18;;;8.02;;
53642;SDS011;39546;45.534;12.048;2022-11-21T07:05:07;10.55;;;7.55;;
53642;SDS011;39546;45.534;12.048;2022-11-21T07:11:10;11.07;;;8.18;;
53642;SDS011;39546;45.534;12.048;2022-11-21T07:17:16;15.35;;;10.20;;
53642;SDS011;39546;45.534;12.048;2022-11-21T07:23:18;12.45;;;9.23;;
53642;SDS011;39546;45.534;12.048;2022-11-21T07:29:20;16.73;;;9.90;;
53642;SDS011;39546;45.534;12.048;2022-11-21T07:35:22;15.02;;;10.70;;
53642;SDS011;39546;45.534;12.048;2022-11-21T07:41:25;12.82;;;9.98;;
53642;SDS011;39546;45.534;12.048;2022-11-21T07:47:27;14.10;;;10.30;;
53642;SDS011;39546;45.534;12.048;2022-11-21T07:53:29;11.15;;;7.90;;
53642;SDS011;39546;45.534;12.048;2022-11-21T07:59:32;12.65;;;9.90;;
53642;SDS011;39546;45.534;12.048;2022-11-21T08:05:38;11.80;;;9.38;;
53642;SDS011;39546;45.534;12.048;2022-11-21T08:11:46;14.52;;;8.98;;
53642;SDS011;39546;45.534;12.048;2022-11-21T08:17:48;10.23;;;8.30;;
53642;SDS011;39546;45.534;12.048;2022-11-21T08:23:50;13.77;;;9.93;;
53642;SDS011;39546;45.534;12.048;2022-11-21T08:29:53;13.48;;;8.75;;
53642;SDS011;39546;45.534;12.048;2022-11-21T08:35:56;11.98;;;9.10;;
53642;SDS011;39546;45.534;12.048;2022-11-21T08:41:58;10.57;;;7.85;;
53642;SDS011;39546;45.534;12.048;2022-11-21T08:48:10;10.60;;;6.37;;
53642;SDS011;39546;45.534;12.048;2022-11-21T08:54:12;12.82;;;7.20;;
53642;SDS011;39546;45.534;12.048;2022-11-21T09:00:14;9.93;;;6.78;;
53642;SDS011;39546;45.534;12.048;2022-11-21T09:06:37;9.27;;;5.60;;
53642;SDS011;39546;45.534;12.048;2022-11-21T09:12:39;8.63;;;5.47;;
53642;SDS011;39546;45.534;12.048;2022-11-21T09:18:41;14.45;;;9.77;;
53642;SDS011;39546;45.534;12.048;2022-11-21T09:24:44;8.40;;;5.20;;
53642;SDS011;39546;45.534;12.048;2022-11-21T09:30:46;8.68;;;5.40;;
53642;SDS011;39546;45.534;12.048;2022-11-21T09:37:07;8.35;;;5.25;;
53642;SDS011;39546;45.534;12.048;2022-11-21T09:49:26;8.80;;;6.05;;
53642;SDS011;39546;45.534;12.048;2022-11-21T09:55:43;8.75;;;6.28;;
53642;SDS011;39546;45.534;12.048;2022-11-21T10:02:12;8.77;;;6.20;;
53642;SDS011;39546;45.534;12.048;2022-11-21T10:14:36;7.37;;;5.28;;
53642;SDS011;39546;45.534;12.048;2022-11-21T10:27:36;8.10;;;4.18;;
53642;SDS011;39546;45.534;12.048;2022-11-21T10:34:03;6.57;;;4.30;;
53642;SDS011;39546;45.534;12.048;2022-11-21T10:46:58;6.78;;;4.65;;
53642;SDS011;39546;45.534;12.048;2022-11-21T10:59:28;5.35;;;3.10;;
53642;SDS011;39546;45.534;12.048;2022-11-21T11:05:32;4.62;;;2.72;;
53642;SDS011;39546;45.534;12.048;2022-11-21T11:11:35;3.92;;;2.50;;
53642;SDS011;39546;45.534;12.048;2022-11-21T11:17:37;13.23;;;5.47;;
53642;SDS011;39546;45.534;12.048;2022-11-21T11:23:39;9.38;;;3.87;;
53642;SDS011;39546;45.534;12.048;2022-11-21T11:29:49;6.82;;;4.70;;
53642;SDS011;39546;45.534;12.048;2022-11-21T11:35:52;8.70;;;4.40;;
53642;SDS011;39546;45.534;12.048;2022-11-21T11:48:20;8.35;;;5.32;;
53642;SDS011;39546;45.534;12.048;2022-11-21T11:54:23;8.90;;;6.22;;
53642;SDS011;39546;45.534;12.048;2022-11-21T12:07:12;11.48;;;6.32;;
53642;SDS011;39546;45.534;12.048;2022-11-21T12:13:22;16.62;;;11.63;;
53642;SDS011;39546;45.534;12.048;2022-11-21T12:19:26;18.15;;;12.13;;
53642;SDS011;39546;45.534;12.048;2022-11-21T12:25:29;14.95;;;8.75;;
53642;SDS011;39546;45.534;12.048;2022-11-21T12:44:21;12.93;;;8.18;;
53642;SDS011;39546;45.534;12.048;2022-11-21T12:51:08;13.95;;;9.23;;
53642;SDS011;39546;45.534;12.048;2022-11-21T13:04:19;18.35;;;11.38;;
53642;SDS011;39546;45.534;12.048;2022-11-21T13:10:27;15.45;;;10.60;;
53642;SDS011;39546;45.534;12.048;2022-11-21T13:16:31;15.13;;;9.90;;
53642;SDS011;39546;45.534;12.048;2022-11-21T13:28:42;12.15;;;8.02;;
53642;SDS011;39546;45.534;12.048;2022-11-21T13:34:47;17.83;;;12.13;;
53642;SDS011;39546;45.534;12.048;2022-11-21T13:40:49;12.85;;;9.77;;
53642;SDS011;39546;45.534;12.048;2022-11-21T14:06:42;14.57;;;7.18;;
53642;SDS011;39546;45.534;12.048;2022-11-21T14:12:46;16.20;;;10.32;;
53642;SDS011;39546;45.534;12.048;2022-11-21T14:18:50;15.90;;;9.20;;
53642;SDS011;39546;45.534;12.048;2022-11-21T14:24:54;15.63;;;9.50;;
53642;SDS011;39546;45.534;12.048;2022-11-21T14:31:00;13.85;;;8.35;;
53642;SDS011;39546;45.534;12.048;2022-11-21T14:37:10;15.45;;;9.80;;
53642;SDS011;39546;45.534;12.048;2022-11-21T14:43:20;12.85;;;8.85;;
53642;SDS011;39546;45.534;12.048;2022-11-21T14:49:32;11.30;;;7.07;;
53642;SDS011;39546;45.534;12.048;2022-11-21T14:55:34;13.00;;;9.98;;
53642;SDS011;39546;45.534;12.048;2022-11-21T15:01:36;12.07;;;6.75;;
53642;SDS011;39546;45.534;12.048;2022-11-21T15:07:42;15.13;;;11.18;;
53642;SDS011;39546;45.534;12.048;2022-11-21T15:13:46;12.05;;;6.53;;
53642;SDS011;39546;45.534;12.048;2022-11-21T15:32:30;10.05;;;5.65;;
53642;SDS011;39546;45.534;12.048;2022-11-21T15:38:39;9.15;;;5.28;;
53642;SDS011;39546;45.534;12.048;2022-11-21T15:45:02;9.98;;;6.65;;
53642;SDS011;39546;45.534;12.048;2022-11-21T15:51:16;12.90;;;8.88;;
53642;SDS011;39546;45.534;12.048;2022-11-21T15:57:20;10.73;;;7.40;;
53642;SDS011;39546;45.534;12.048;2022-11-21T16:03:22;9.25;;;6.43;;
53642;SDS011;39546;45.534;12.048;2022-11-21T16:09:24;9.55;;;6.20;;
53642;SDS011;39546;45.534;12.048;2022-11-21T16:15:26;10.20;;;7.90;;
53642;SDS011;39546;45.534;12.048;2022-11-21T16:21:28;10.40;;;7.37;;
53642;SDS011;39546;45.534;12.048;2022-11-21T16:27:31;10.70;;;7.68;;
53642;SDS011;39546;45.534;12.048;2022-11-21T16:33:33;11.65;;;9.38;;
53642;SDS011;39546;45.534;12.048;2022-11-21T16:39:36;12.13;;;8.73;;
53642;SDS011;39546;45.534;12.048;2022-11-21T16:45:38;9.70;;;6.70;;
53642;SDS011;39546;45.534;12.048;2022-11-21T16:51:40;9.63;;;6.32;;
53642;SDS011;39546;45.534;12.048;2022-11-21T16:57:42;12.02;;;8.23;;
53642;SDS011;39546;45.534;12.048;2022-11-21T17:03:45;11.52;;;8.65;;
53642;SDS011;39546;45.534;12.048;2022-11-21T17:09:48;15.18;;;9.32;;
53642;SDS011;39546;45.534;12.048;2022-11-21T17:15:52;14.23;;;9.27;;
53642;SDS011;39546;45.534;12.048;2022-11-21T17:21:54;15.82;;;9.77;;
53642;SDS011;39546;45.534;12.048;2022-11-21T17:27:57;17.92;;;12.73;;
53642;SDS011;39546;45.534;12.048;2022-11-21T17:34:00;14.95;;;11.00;;
53642;SDS011;39546;45.534;12.048;2022-11-21T17:40:03;18.48;;;12.35;;
53642;SDS011;39546;45.534;12.048;2022-11-21T17:46:12;17.65;;;12.27;;
53642;SDS011;39546;45.534;12.048;2022-11-21T17:52:19;17.52;;;12.73;;
53642;SDS011;39546;45.534;12.048;2022-11-21T17:58:23;15.32;;;11.40;;
53642;SDS011;39546;45.534;12.048;2022-11-21T18:04:25;15.90;;;12.57;;
53642;SDS011;39546;45.534;12.048;2022-11-21T18:10:27;14.95;;;10.95;;
53642;SDS011;39546;45.534;12.048;2022-11-21T18:16:31;17.08;;;12.25;;
53642;SDS011;39546;45.534;12.048;2022-11-21T18:22:34;15.27;;;11.27;;
53642;SDS011;39546;45.534;12.048;2022-11-21T18:28:37;12.68;;;11.23;;
53642;SDS011;39546;45.534;12.048;2022-11-21T18:34:39;19.77;;;14.68;;
53642;SDS011;39546;45.534;12.048;2022-11-21T18:40:41;21.62;;;16.83;;
53642;SDS011;39546;45.534;12.048;2022-11-21T18:46:44;19.92;;;13.95;;
53642;SDS011;39546;45.534;12.048;2022-11-21T18:52:47;19.65;;;14.00;;
53642;SDS011;39546;45.534;12.048;2022-11-21T18:58:50;22.65;;;16.87;;
53642;SDS011;39546;45.534;12.048;2022-11-21T19:04:53;17.85;;;14.82;;
53642;SDS011;39546;45.534;12.048;2022-11-21T19:10:56;17.62;;;13.40;;
53642;SDS011;39546;45.534;12.048;2022-11-21T19:17:19;16.67;;;14.02;;
53642;SDS011;39546;45.534;12.048;2022-11-21T19:23:21;16.05;;;13.40;;
53642;SDS011;39546;45.534;12.048;2022-11-21T19:29:24;19.95;;;16.75;;
53642;SDS011;39546;45.534;12.048;2022-11-21T19:35:26;16.12;;;12.02;;
53642;SDS011;39546;45.534;12.048;2022-11-21T19:41:28;18.48;;;11.77;;
53642;SDS011;39546;45.534;12.048;2022-11-21T19:47:31;18.37;;;13.18;;
53642;SDS011;39546;45.534;12.048;2022-11-21T19:53:35;19.83;;;13.62;;
53642;SDS011;39546;45.534;12.048;2022-11-21T19:59:39;17.95;;;12.25;;
53642;SDS011;39546;45.534;12.048;2022-11-21T20:05:45;22.15;;;16.08;;
53642;SDS011;39546;45.534;12.048;2022-11-21T20:11:55;15.00;;;9.98;;
53642;SDS011;39546;45.534;12.048;2022-11-21T20:18:00;12.32;;;8.95;;
53642;SDS011;39546;45.534;12.048;2022-11-21T20:24:02;13.90;;;10.20;;
53642;SDS011;39546;45.534;12.048;2022-11-21T20:30:07;17.37;;;12.15;;
53642;SDS011;39546;45.534;12.048;2022-11-21T20:36:14;17.92;;;11.73;;
53642;SDS011;39546;45.534;12.048;2022-11-21T20:42:19;20.62;;;14.02;;
53642;SDS011;39546;45.534;12.048;2022-11-21T20:48:21;16.15;;;12.25;;
53642;SDS011;39546;45.534;12.048;2022-11-21T21:01:07;20.88;;;10.90;;
53642;SDS011;39546;45.534;12.048;2022-11-21T21:07:14;20.35;;;14.55;;
53642;SDS011;39546;45.534;12.048;2022-11-21T21:13:17;14.98;;;11.68;;
53642;SDS011;39546;45.534;12.048;2022-11-21T21:19:19;21.42;;;11.40;;
53642;SDS011;39546;45.534;12.048;2022-11-21T21:25:22;16.50;;;12.25;;
53642;SDS011;39546;45.534;12.048;2022-11-21T21:31:24;14.18;;;11.12;;
53642;SDS011;39546;45.534;12.048;2022-11-21T21:37:27;13.82;;;9.80;;
53642;SDS011;39546;45.534;12.048;2022-11-21T21:43:30;14.27;;;10.43;;
53642;SDS011;39546;45.534;12.048;2022-11-21T21:49:32;10.90;;;9.18;;
53642;SDS011;39546;45.534;12.048;2022-11-21T21:55:34;14.35;;;11.43;;
53642;SDS011;39546;45.534;12.048;2022-11-21T22:01:37;11.43;;;8.85;;
53642;SDS011;39546;45.534;12.048;2022-11-21T22:07:39;13.52;;;10.15;;
53642;SDS011;39546;45.534;12.048;2022-11-21T22:13:42;12.15;;;9.15;;
53642;SDS011;39546;45.534;12.048;2022-11-21T22:19:45;15.05;;;8.80;;
53642;SDS011;39546;45.534;12.048;2022-11-21T22:25:48;11.50;;;8.55;;
53642;SDS011;39546;45.534;12.048;2022-11-21T22:31:50;12.70;;;8.90;;
53642;SDS011;39546;45.534;12.048;2022-11-21T22:37:52;16.00;;;13.73;;
53642;SDS011;39546;45.534;12.048;2022-11-21T22:43:55;14.65;;;10.55;;
53642;SDS011;39546;45.534;12.048;2022-11-21T22:49:58;12.10;;;8.25;;
53642;SDS011;39546;45.534;12.048;2022-11-21T22:56:15;13.07;;;8.27;;
53642;SDS011;39546;45.534;12.048;2022-11-21T23:02:19;15.90;;;10.35;;
53642;SDS011;39546;45.534;12.048;2022-11-21T23:08:20;11.10;;;7.93;;
53642;SDS011;39546;45.534;12.048;2022-11-21T23:14:23;11.15;;;6.95;;
53642;SDS011;39546;45.534;12.048;2022-11-21T23:20:30;14.30;;;10.55;;
53642;SDS011;39546;45.534;12.048;2022-11-21T23:26:32;10.48;;;8.15;;
53642;SDS011;39546;45.534;12.048;2022-11-21T23:32:35;11.23;;;7.53;;
53642;SDS011;39546;45.534;12.048;2022-11-21T23:38:36;14.48;;;9.57;;
53642;SDS011;39546;45.534;12.048;2022-11-21T23:44:39;10.10;;;7.43;;
53642;SDS011;39546;45.534;12.048;2022-11-21T23:50:42;10.20;;;6.20;;
53642;SDS011;39546;45.534;12.048;2022-11-21T23:56:44;12.40;;;8.82;;
